Flight Track Log - Related Links

Times and Time Zones

All times are in EDT time to prevent confusion due to time zone crossing. See the N502QS flight status page for this flight to view local times or setup timezone preferences in your user account.


Time Position Orientation Groundspeed Altitude Reporting Facility
EDT Latitude Longitude Course Direction KTS MPH feet Rate Location/Type
Sat 08:36:44 AM 41.0500 -73.7000 236° Southwest 194 223 1,300  Level New York TRACON
Sat 08:37:44 AM 41.0333 -73.7333 236° Southwest 204 235 4,600 3,050 Climbing New York TRACON
Sat 08:38:44 AM 41.0667 -73.8000 304° West 251 289 7,400 3,200 Climbing New York TRACON
Sat 08:39:44 AM 41.1167 -73.8667 315° West 285 328 11,000 2,538 Climbing New York TRACON
Sat 08:40:28 AM 41.1528 -73.9236 310° West 311 358 11,800 2,077 Climbing New York Center
Sat 08:41:28 AM 41.2225 -74.0397 309° West 356 410 14,600 2,628 Climbing New York Center
Sat 08:42:29 AM 41.2822 -74.1450 307° West 387 445 17,100 2,529 Climbing New York Center
Sat 08:43:29 AM 41.3658 -74.2736 311° West 407 468 19,700 2,550 Climbing New York Center
Sat 08:44:29 AM 41.4328 -74.4042 304° West 419 482 22,200 2,542 Climbing New York Center
Sat 08:45:27 AM 41.4969 -74.5461 301° West 433 498 24,700 2,441 Climbing New York Center
Sat 08:46:27 AM 41.5444 -74.6819 295° West 445 512 27,000 2,083 Climbing New York Center
Sat 08:47:28 AM 41.6103 -74.8300 301° West 457 526 28,900 1,587 Climbing New York Center
Sat 08:48:28 AM 41.6778 -74.9869 300° West 472 543 30,200 1,835 Climbing New York Center
Sat 08:49:29 AM 41.7431 -75.1411 300° West 477 549 32,600 2,269 Climbing New York Center
Sat 08:50:27 AM 41.8081 -75.2928 300° West 477 549 34,700 2,237 Climbing New York Center
Sat 08:51:27 AM 41.8728 -75.4475 299° West 477 549 37,000 1,835 Climbing New York Center
Sat 08:52:28 AM 41.9375 -75.6000 300° West 477 549 38,400 1,279 Climbing New York Center
Sat 08:53:29 AM 41.9981 -75.7494 299° West 477 549 39,600 1,107 Climbing New York Center
Sat 08:56:32 AM 42.1883 -76.2306 298° West 465 535 42,900 815 Climbing Cleveland Center
Sat 08:57:32 AM 42.2358 -76.3900 292° West 465 535 42,900  Level Cleveland Center
Sat 08:58:32 AM 42.2897 -76.5522 294° West 465 535 42,900  Level Cleveland Center
Sat 08:59:32 AM 42.3411 -76.7175 293° West 470 541 42,900  Level Cleveland Center
Sat 09:00:32 AM 42.3947 -76.8828 294° West 470 541 42,900  Level Cleveland Center
Sat 09:01:32 AM 42.4456 -77.0461 293° West 470 541 42,900  Level Cleveland Center
Sat 09:02:32 AM 42.4964 -77.2094 293° West 470 541 42,900  Level Cleveland Center
Sat 09:03:32 AM 42.5469 -77.3731 293° West 470 541 42,900  Level Cleveland Center
Sat 09:04:32 AM 42.5975 -77.5453 292° West 475 547 42,900  Level Cleveland Center
Sat 09:05:32 AM 42.6494 -77.7094 293° West 475 547 42,900  Level Cleveland Center
Sat 09:06:32 AM 42.7061 -77.8933 293° West 475 547 42,900  Level Cleveland Center
Sat 09:07:32 AM 42.7556 -78.0553 293° West 480 552 42,900  Level Cleveland Center
Sat 09:08:32 AM 42.8050 -78.2231 292° West 480 552 42,900  Level Cleveland Center
Sat 09:09:32 AM 42.8542 -78.3911 292° West 480 552 42,900  Level Cleveland Center
Sat 09:10:32 AM 42.8967 -78.5428 291° West 480 552 42,900 50 Level Cleveland Center
Sat 09:11:32 AM 42.9369 -78.7117 288° West 480 552 43,000 48 Climbing Cleveland Center
Sat 09:12:37 AM 42.9333 -78.9000 269° West 470 541 43,000  Level Toronto Center
Sat 09:13:37 AM 42.9500 -79.0833 277° West 470 541 43,000  Level Toronto Center
Sat 09:14:37 AM 42.9500 -79.2667 270° West 470 541 43,000  Level Toronto Center
Sat 09:15:37 AM 42.9667 -79.4500 277° West 470 541 43,000  Level Toronto Center
Sat 09:16:37 AM 42.9667 -79.6167 270° West 470 541 43,000  Level Toronto Center
Sat 09:17:37 AM 42.9833 -79.8000 277° West 480 552 43,000  Level Toronto Center
Sat 09:18:37 AM 42.9833 -79.9667 270° West 480 552 43,000  Level Toronto Center
Sat 09:19:37 AM 43.0000 -80.1500 277° West 480 552 43,000  Level Toronto Center
Sat 09:20:37 AM 43.0000 -80.3333 270° West 480 552 43,000  Level Toronto Center
Sat 09:21:37 AM 43.0167 -80.5167 277° West 480 552 43,000  Level Toronto Center
Sat 09:22:37 AM 43.0167 -80.7000 270° West 470 541 43,000  Level Toronto Center
Sat 09:23:37 AM 43.0167 -80.8833 270° West 470 541 43,000  Level Toronto Center
Sat 09:24:37 AM 43.0167 -81.0667 270° West 480 552 43,000  Level Toronto Center
Sat 09:25:37 AM 43.0333 -81.2500 277° West 480 552 43,000  Level Toronto Center
Sat 09:26:37 AM 43.0667 -81.4333 284° West 480 552 43,000  Level Toronto Center
Sat 09:27:37 AM 43.1000 -81.6000 285° West 480 552 43,000  Level Toronto Center
Sat 09:28:37 AM 43.1167 -81.7833 277° West 480 552 43,000  Level Toronto Center
Sat 09:29:37 AM 43.1333 -81.9667 277° West 480 552 43,000  Level Toronto Center
Sat 09:30:37 AM 43.1667 -82.1500 284° West 480 552 43,000  Level Toronto Center
Sat 09:31:37 AM 43.2000 -82.3333 284° West 480 552 43,000  Level Toronto Center
Sat 09:32:37 AM 43.2167 -82.5167 277° West 480 552 43,000  Level Toronto Center
Sat 09:33:37 AM 43.2333 -82.6833 278° West 480 552 43,000  Level Toronto Center
Sat 09:34:37 AM 43.2500 -82.8667 277° West 480 552 43,000  Level Toronto Center
Sat 09:35:37 AM 43.2500 -83.0500 270° West 480 552 43,000  Level Toronto Center
Sat 09:36:37 AM 43.2333 -83.2333 263° West 480 552 43,000  Level Toronto Center
Sat 09:37:37 AM 43.2333 -83.4167 270° West 480 552 43,000  Level Toronto Center
Sat 09:38:37 AM 43.2333 -83.6000 270° West 480 552 43,000  Level Toronto Center
Sat 09:39:37 AM 43.2333 -83.8000 270° West 480 552 43,000  Level Toronto Center
Sat 09:40:37 AM 43.2333 -83.9667 270° West 480 552 43,000  Level Toronto Center
Sat 09:41:37 AM 43.2333 -84.1333 270° West 480 552 43,000  Level Toronto Center
Sat 09:42:37 AM 43.2333 -84.3333 270° West 480 552 43,000  Level Toronto Center
Sat 09:43:37 AM 43.2333 -84.5000 270° West 490 564 43,000  Level Toronto Center
Sat 09:44:37 AM 43.2167 -84.6833 263° West 470 541 43,000  Level Toronto Center
Sat 09:45:37 AM 43.2333 -84.8667 277° West 480 552 43,000  Level Toronto Center
Sat 09:46:37 AM 43.2167 -85.0500 263° West 460 529 43,000  Level Toronto Center
Sat 09:47:37 AM 43.2167 -85.2333 270° West 480 552 43,000  Level Toronto Center
Sat 09:48:37 AM 43.2167 -85.4167 270° West 470 541 43,000  Level Toronto Center
Sat 09:49:37 AM 43.2000 -85.6000 263° West 470 541 43,000  Level Toronto Center
Sat 09:50:37 AM 43.2000 -85.7833 270° West 480 552 43,000  Level Toronto Center
Sat 09:51:37 AM 43.1833 -85.9500 262° West 470 541 43,000  Level Toronto Center
Sat 09:52:59 AM 43.2019 -86.1967 276° West 478 550 43,000  Level Chicago Center
Sat 09:54:01 AM 43.1967 -86.3775 268° West 481 554 43,000  Level Chicago Center
Sat 09:55:03 AM 43.1903 -86.5536 267° West 475 547 43,000  Level Chicago Center
Sat 09:56:05 AM 43.1831 -86.7714 267° West 480 552 43,000  Level Chicago Center
Sat 09:57:06 AM 43.1753 -86.9503 267° West 477 549 43,000  Level Chicago Center
Sat 09:58:09 AM 43.1683 -87.1300 267° West 477 549 43,000  Level Chicago Center
Sat 09:59:10 AM 43.1597 -87.3119 266° West 482 555 43,000  Level Chicago Center
Sat 10:00:12 AM 43.1522 -87.5142 267° West 471 542 43,000  Level Chicago Center
Sat 10:01:13 AM 43.1436 -87.6983 266° West 479 551 43,000  Level Chicago Center
Sat 10:02:15 AM 43.1353 -87.8814 266° West 479 551 43,000  Level Chicago Center
Sat 10:03:17 AM 43.1264 -88.0650 266° West 481 554 43,000  Level Chicago Center
Sat 10:04:18 AM 43.1172 -88.2475 266° West 476 548 43,000  Level Chicago Center
Sat 10:05:20 AM 43.1178 -88.4333 270° West 482 555 43,000  Level Chicago Center
Sat 10:06:22 AM 43.1206 -88.6206 271° West 486 559 43,000  Level Chicago Center
Sat 10:07:23 AM 43.1239 -88.8064 271° West 484 557 43,000  Level Chicago Center
Sat 10:08:25 AM 43.1261 -88.9903 271° West 481 554 43,000  Level Chicago Center
Sat 10:09:27 AM 43.1281 -89.2031 271° West 478 550 43,000  Level Chicago Center
Sat 10:10:28 AM 43.1294 -89.3869 271° West 481 554 43,000  Level Chicago Center
Sat 10:11:30 AM 43.1311 -89.5706 271° West 482 555 43,000  Level Chicago Center
Sat 10:12:32 AM 43.1317 -89.7550 270° West 483 556 43,000  Level Chicago Center
Sat 10:13:33 AM 43.1314 -89.9372 270° West 479 551 43,000  Level Chicago Center
Sat 10:14:35 AM 43.1331 -90.1219 271° West 484 557 43,000  Level Chicago Center
Sat 10:15:37 AM 43.1333 -90.3303 270° West 488 562 43,000  Level Chicago Center
Sat 10:16:38 AM 43.1347 -90.5133 271° West 487 560 43,000  Level Chicago Center
Sat 10:17:40 AM 43.1339 -90.6950 270° West 484 557 43,000  Level Chicago Center
Sat 10:18:42 AM 43.1333 -90.8764 270° West 483 556 43,000  Level Chicago Center
Sat 10:19:44 AM 43.1325 -91.0575 270° West 483 556 43,000  Level Chicago Center
Sat 10:20:45 AM 43.1308 -91.2772 269° West 486 559 43,000  Level Chicago Center
Sat 10:21:47 AM 43.1286 -91.4572 269° West 485 558 43,000  Level Chicago Center
Sat 10:22:49 AM 43.1267 -91.6389 269° West 487 560 43,000  Level Chicago Center
Sat 10:23:51 AM 43.1250 -91.8203 269° West 487 560 43,000  Level Chicago Center
Sat 10:24:53 AM 43.1206 -92.0372 268° West 485 558 43,000  Level Chicago Center
Sat 10:25:55 AM 43.1175 -92.2181 269° West 484 557 43,000  Level Chicago Center
Sat 10:26:56 AM 43.1142 -92.3978 269° West 482 555 43,000  Level Chicago Center
Sat 10:27:58 AM 43.1114 -92.5781 269° West 480 552 43,000  Level Chicago Center
Sat 10:29:00 AM 43.1072 -92.7622 268° West 482 555 43,000  Level Chicago Center
Sat 10:30:02 AM 43.1014 -92.9772 268° West 488 562 43,000  Level Chicago Center
Sat 10:31:04 AM 43.0981 -93.1558 269° West 479 551 43,000  Level Chicago Center
Sat 10:32:06 AM 43.0919 -93.3386 267° West 483 556 43,000  Level Chicago Center
Sat 10:33:08 AM 43.0764 -93.5183 263° West 482 555 43,000  Level Chicago Center
Sat 10:34:10 AM 43.0597 -93.6969 263° West 480 552 43,000  Level Chicago Center
Sat 10:35:12 AM 43.0375 -93.9125 262° West 482 555 43,000  Level Chicago Center
Sat 10:36:14 AM 43.0211 -94.0875 263° West 475 547 43,000  Level Chicago Center
Sat 10:37:36 AM 42.9969 -94.3372 263° West 477 549 43,000  Level Minneapolis Center
Sat 10:38:38 AM 42.9772 -94.5167 262° West 480 552 43,000  Level Minneapolis Center
Sat 10:39:40 AM 42.9639 -94.6669 263° West 475 547 43,000  Level Minneapolis Center
Sat 10:40:42 AM 42.9408 -94.8814 262° West 474 545 43,000  Level Minneapolis Center
Sat 10:41:44 AM 42.9211 -95.0619 262° West 479 551 43,000  Level Minneapolis Center
Sat 10:42:46 AM 42.9025 -95.2392 262° West 476 548 43,000  Level Minneapolis Center
Sat 10:43:48 AM 42.8831 -95.4172 262° West 476 548 43,000  Level Minneapolis Center
Sat 10:44:49 AM 42.8586 -95.6300 261° West 474 545 43,000  Level Minneapolis Center
Sat 10:45:51 AM 42.8389 -95.8072 261° West 474 545 43,000  Level Minneapolis Center
Sat 10:46:53 AM 42.8183 -95.9853 261° West 474 545 43,000  Level Minneapolis Center
Sat 10:47:55 AM 42.7981 -96.1581 261° West 466 536 43,000  Level Minneapolis Center
Sat 10:48:57 AM 42.7772 -96.3331 261° West 466 536 43,000  Level Minneapolis Center
Sat 10:49:59 AM 42.7561 -96.5086 261° West 470 541 43,000  Level Minneapolis Center
Sat 10:51:01 AM 42.7344 -96.6850 261° West 472 543 43,000  Level Minneapolis Center
Sat 10:52:03 AM 42.7089 -96.8944 261° West 469 540 43,000  Level Minneapolis Center
Sat 10:53:05 AM 42.6867 -97.0700 260° West 471 542 43,000  Level Minneapolis Center
Sat 10:54:07 AM 42.6653 -97.2400 260° West 477 549 43,000  Level Minneapolis Center
Sat 10:55:21 AM 42.6428 -97.4111 260° West 467 537 43,000  Level Minneapolis Center
Sat 10:56:23 AM 42.6161 -97.6169 260° West 462 532 43,000  Level Minneapolis Center
Sat 10:57:25 AM 42.5883 -97.8258 260° West 470 541 43,000 -48 Level Minneapolis Center
Sat 10:58:27 AM 42.5669 -97.9856 260° West 471 542 42,900  Descending Minneapolis Center
Sat 10:59:29 AM 42.5450 -98.1522 260° West 456 525 43,000 48 Climbing Minneapolis Center
Sat 11:00:31 AM 42.5175 -98.3528 260° West 453 521 43,000  Level Minneapolis Center
Sat 11:01:33 AM 42.4939 -98.5239 259° West 461 531 43,000  Level Minneapolis Center
Sat 11:02:34 AM 42.4747 -98.6592 259° West 460 529 43,000  Level Minneapolis Center
Sat 11:03:37 AM 42.4394 -98.8606 257° West 461 531 43,000  Level Minneapolis Center
Sat 11:04:39 AM 42.4100 -99.0267 257° West 457 526 43,000  Level Minneapolis Center
Sat 11:05:41 AM 42.3803 -99.1889 256° West 448 516 43,000  Level Minneapolis Center
Sat 11:06:43 AM 42.3444 -99.3864 256° West 452 520 43,000  Level Minneapolis Center
Sat 11:07:36 AM 42.3200 -99.5181 256° West 452 520 43,000  Level Denver Center
Sat 11:08:38 AM 42.2864 -99.6983 256° West 458 527 43,000  Level Denver Center
Sat 11:09:40 AM 42.2581 -99.8531 256° West 449 517 43,000  Level Denver Center
Sat 11:10:42 AM 42.2225 -100.0308 255° West 442 509 43,000  Level Denver Center
Sat 11:11:44 AM 42.1933 -100.1869 256° West 445 512 43,000  Level Denver Center
Sat 11:12:46 AM 42.1589 -100.3739 256° West 458 527 43,000  Level Denver Center
Sat 11:13:48 AM 42.1272 -100.5319 255° West 459 528 43,000  Level Denver Center
Sat 11:14:50 AM 42.0917 -100.7178 256° West 461 531 43,000  Level Denver Center
Sat 11:15:52 AM 42.0589 -100.8781 255° West 464 534 43,000  Level Denver Center
Sat 11:16:54 AM 42.0219 -101.0661 255° West 467 537 43,000  Level Denver Center
Sat 11:17:56 AM 41.9906 -101.2256 255° West 464 534 43,000  Level Denver Center
Sat 11:18:58 AM 41.9519 -101.4119 254° West 466 536 43,000  Level Denver Center
Sat 11:20:00 AM 41.9208 -101.5708 255° West 463 533 43,000  Level Denver Center
Sat 11:21:02 AM 41.8822 -101.7569 254° West 466 536 43,000  Level Denver Center
Sat 11:22:04 AM 41.8469 -101.9192 254° West 472 543 43,000  Level Denver Center
Sat 11:23:06 AM 41.8089 -102.1072 255° West 471 542 43,000  Level Denver Center
Sat 11:24:09 AM 41.7767 -102.2594 254° West 469 540 43,000  Level Denver Center
Sat 11:25:11 AM 41.7344 -102.4553 254° West 470 541 43,000  Level Denver Center
Sat 11:26:13 AM 41.7008 -102.6100 254° West 474 545 43,000  Level Denver Center
Sat 11:27:15 AM 41.6600 -102.7967 254° West 470 541 43,000  Level Denver Center
Sat 11:28:17 AM 41.6258 -102.9578 254° West 471 542 43,000  Level Denver Center
Sat 11:29:19 AM 41.5825 -103.1425 253° West 467 537 43,000  Level Denver Center
Sat 11:30:21 AM 41.5492 -103.2989 254° West 460 529 43,000  Level Denver Center
Sat 11:31:23 AM 41.5089 -103.4831 254° West 465 535 43,000  Level Denver Center
Sat 11:32:25 AM 41.4719 -103.6439 253° West 471 542 43,000  Level Denver Center
Sat 11:33:27 AM 41.4294 -103.8306 253° West 472 543 43,000  Level Denver Center
Sat 11:34:29 AM 41.3936 -103.9886 253° West 469 540 43,000  Level Denver Center
Sat 11:35:31 AM 41.3569 -104.1472 253° West 467 537 43,000  Level Denver Center
Sat 11:36:33 AM 41.3136 -104.3325 253° West 469 540 43,000  Level Denver Center
Sat 11:37:35 AM 41.2772 -104.4900 253° West 466 536 43,000  Level Denver Center
Sat 11:38:38 AM 41.2331 -104.6775 253° West 472 543 43,000  Level Denver Center
Sat 11:39:40 AM 41.1989 -104.8386 254° West 473 544 43,000  Level Denver Center
Sat 11:40:42 AM 41.1656 -105.0269 257° West 470 541 43,000  Level Denver Center
Sat 11:41:44 AM 41.1378 -105.1919 257° West 475 547 43,000  Level Denver Center
Sat 11:42:46 AM 41.1039 -105.3808 257° West 472 543 43,000  Level Denver Center
Sat 11:43:48 AM 41.0750 -105.5419 257° West 469 540 43,000  Level Denver Center
Sat 11:44:50 AM 41.0417 -105.7292 257° West 468 539 43,000  Level Denver Center
Sat 11:45:52 AM 41.0153 -105.8725 256° West 465 535 43,000  Level Denver Center
Sat 11:46:54 AM 40.9781 -106.0708 256° West 467 537 43,000  Level Denver Center
Sat 11:47:56 AM 40.9506 -106.2194 256° West 460 529 43,000  Level Denver Center
Sat 11:48:58 AM 40.9164 -106.3997 256° West 452 520 43,000  Level Denver Center
Sat 11:50:00 AM 40.8886 -106.5531 257° West 449 517 43,000  Level Denver Center
Sat 11:51:02 AM 40.8539 -106.7350 256° West 456 525 43,000  Level Denver Center
Sat 11:52:04 AM 40.8244 -106.8919 256° West 460 529 43,000  Level Denver Center
Sat 11:53:07 AM 40.7894 -107.0753 256° West 461 531 43,000  Level Denver Center
Sat 11:54:09 AM 40.7583 -107.2347 256° West 467 537 43,000  Level Denver Center
Sat 11:55:11 AM 40.7256 -107.3994 255° West 460 529 43,000  Level Denver Center
Sat 11:56:13 AM 40.6853 -107.5792 254° West 458 527 43,000  Level Denver Center
Sat 11:57:15 AM 40.6358 -107.7306 247° West 468 539 43,000  Level Denver Center
Sat 11:58:17 AM 40.5792 -107.9119 248° West 479 551 43,000  Level Denver Center
Sat 11:59:19 AM 40.5292 -108.0672 247° West 483 556 43,000  Level Denver Center
Sat 12:00:21 PM 40.4700 -108.2472 247° West 482 555 43,000  Level Denver Center
Sat 12:01:23 PM 40.4203 -108.4019 247° West 480 552 43,000  Level Denver Center
Sat 12:02:25 PM 40.3622 -108.5814 247° West 480 552 43,000  Level Denver Center
Sat 12:03:27 PM 40.3117 -108.7356 247° West 483 556 43,000  Level Denver Center
Sat 12:04:29 PM 40.2522 -108.9150 247° West 482 555 43,000  Level Denver Center
Sat 12:05:31 PM 40.2022 -109.0678 247° West 481 554 43,000  Level Denver Center
Sat 12:06:33 PM 40.1433 -109.2436 246° West 477 549 43,000  Level Denver Center
Sat 12:07:35 PM 40.0919 -109.3958 246° West 479 551 43,000  Level Denver Center
Sat 12:08:37 PM 40.0489 -109.5836 253° West 486 559 43,000  Level Denver Center
Sat 12:09:39 PM 40.0156 -109.7431 255° West 481 554 43,000  Level Denver Center
Sat 12:10:42 PM 39.9764 -109.9300 255° West 480 552 43,000  Level Denver Center
Sat 12:11:44 PM 39.9431 -110.0903 255° West 479 551 43,000  Level Denver Center
Sat 12:12:46 PM 39.9075 -110.2483 254° West 477 549 43,000  Level Denver Center
Sat 12:13:48 PM 39.8686 -110.4333 255° West 475 547 43,000  Level Denver Center
Sat 12:14:50 PM 39.8339 -110.5933 254° West 479 551 43,000  Level Denver Center
Sat 12:15:52 PM 39.7925 -110.7783 254° West 478 550 43,000  Level Denver Center
Sat 12:17:13 PM 39.7483 -110.9872 255° West 472 543 43,000  Level Salt Lake Center
Sat 12:18:15 PM 39.7067 -111.1714 254° West 476 548 43,000  Level Salt Lake Center
Sat 12:19:17 PM 39.6656 -111.3453 253° West 480 552 43,000  Level Salt Lake Center
Sat 12:20:19 PM 39.6272 -111.5122 253° West 482 555 43,000  Level Salt Lake Center
Sat 12:21:21 PM 39.5897 -111.6778 254° West 479 551 43,000  Level Salt Lake Center
Sat 12:22:23 PM 39.5531 -111.8450 254° West 481 554 43,000  Level Salt Lake Center
Sat 12:23:25 PM 39.5142 -112.0097 253° West 479 551 43,000  Level Salt Lake Center
Sat 12:24:27 PM 39.4758 -112.1750 253° West 480 552 43,000  Level Salt Lake Center
Sat 12:25:29 PM 39.4300 -112.3739 253° West 483 556 43,000  Level Salt Lake Center
Sat 12:26:31 PM 39.3931 -112.5381 254° West 478 550 43,000  Level Salt Lake Center
Sat 12:27:33 PM 39.3536 -112.6942 252° West 472 543 43,000  Level Salt Lake Center
Sat 12:28:36 PM 39.3136 -112.8558 252° West 474 545 43,000  Level Salt Lake Center
Sat 12:29:37 PM 39.2744 -113.0194 253° West 479 551 43,000  Level Salt Lake Center
Sat 12:30:40 PM 39.2267 -113.2161 253° West 481 554 43,000  Level Salt Lake Center
Sat 12:31:42 PM 39.1867 -113.3800 253° West 481 554 43,000  Level Salt Lake Center
Sat 12:32:44 PM 39.1469 -113.5419 252° West 477 549 43,000  Level Salt Lake Center
Sat 12:33:46 PM 39.1058 -113.7047 252° West 479 551 43,000  Level Salt Lake Center
Sat 12:34:48 PM 39.0642 -113.8686 252° West 482 555 43,000  Level Salt Lake Center
Sat 12:35:50 PM 39.0247 -114.0311 253° West 480 552 43,000  Level Salt Lake Center
Sat 12:36:52 PM 38.9750 -114.2258 252° West 481 554 43,000  Level Salt Lake Center
Sat 12:37:54 PM 38.9336 -114.3869 252° West 479 551 43,000  Level Salt Lake Center
Sat 12:38:56 PM 38.8906 -114.5492 251° West 481 554 43,000  Level Salt Lake Center
Sat 12:39:58 PM 38.8486 -114.7128 252° West 484 557 43,000  Level Salt Lake Center
Sat 12:41:00 PM 38.8072 -114.8758 252° West 484 557 43,000  Level Salt Lake Center
Sat 12:42:02 PM 38.7542 -115.0711 251° West 485 558 43,000  Level Salt Lake Center
Sat 12:43:04 PM 38.7094 -115.2344 251° West 487 560 43,000  Level Salt Lake Center
Sat 12:44:06 PM 38.6669 -115.3947 251° West 482 555 43,000  Level Salt Lake Center
Sat 12:45:08 PM 38.6244 -115.5556 251° West 478 550 43,000  Level Salt Lake Center
Sat 12:46:10 PM 38.5811 -115.7169 251° West 480 552 43,000  Level Salt Lake Center
Sat 12:47:12 PM 38.5383 -115.8789 251° West 481 554 43,000  Level Salt Lake Center
Sat 12:48:14 PM 38.4944 -116.0400 251° West 482 555 43,000  Level Salt Lake Center
Sat 12:49:16 PM 38.4394 -116.2328 250° West 481 554 43,000  Level Salt Lake Center
Sat 12:50:18 PM 38.3958 -116.3917 251° West 477 549 43,000  Level Salt Lake Center
Sat 12:51:20 PM 38.3525 -116.5494 251° West 474 545 43,000  Level Salt Lake Center
Sat 12:52:22 PM 38.3075 -116.7089 250° West 476 548 43,000  Level Salt Lake Center
Sat 12:53:24 PM 38.2642 -116.8656 251° West 473 544 43,000  Level Salt Lake Center
Sat 12:54:26 PM 38.2194 -117.0214 250° West 471 542 43,000  Level Salt Lake Center
Sat 12:55:37 PM 38.1400 -117.2042 241° Southwest 488 562 43,000  Level Oakland Center
Sat 12:56:38 PM 38.0672 -117.3631 240° Southwest 484 557 43,000  Level Oakland Center
Sat 12:57:40 PM 38.0003 -117.5064 239° Southwest 476 548 43,000 -585 Level Oakland Center
Sat 12:58:41 PM 37.9336 -117.6472 239° Southwest 469 540 41,800 -1,180 Descending Oakland Center
Sat 12:59:42 PM 37.8700 -117.7825 239° Southwest 451 519 40,600 -1,161 Descending Oakland Center
Sat 01:00:45 PM 37.8025 -117.9233 239° Southwest 464 534 39,400 -1,171 Descending Oakland Center
Sat 01:01:45 PM 37.7361 -118.0656 239° Southwest 470 541 38,200 -1,328 Descending Oakland Center
Sat 01:02:47 PM 37.6553 -118.2361 239° Southwest 472 543 36,700 -1,366 Descending Oakland Center
Sat 01:03:48 PM 37.5853 -118.3794 238° Southwest 478 550 35,400 -1,268 Descending Oakland Center
Sat 01:04:50 PM 37.5164 -118.5258 239° Southwest 483 556 34,100 -1,268 Descending Oakland Center
Sat 01:05:51 PM 37.4456 -118.6714 239° Southwest 487 560 32,800 -1,279 Descending Oakland Center
Sat 01:06:52 PM 37.3906 -118.8133 244° Southwest 484 557 31,500 -1,220 Descending Oakland Center
Sat 01:07:54 PM 37.3706 -118.9747 261° West 474 545 30,300 -1,122 Descending Oakland Center
Sat 01:08:55 PM 37.3522 -119.1672 263° West 464 534 29,200 -1,171 Descending Oakland Center
Sat 01:09:57 PM 37.3344 -119.3247 262° West 459 528 27,900 -1,268 Descending Oakland Center
Sat 01:10:58 PM 37.3194 -119.4797 263° West 449 517 26,600 -1,268 Descending Oakland Center
Sat 01:12:00 PM 37.3042 -119.6322 263° West 442 509 25,300 -1,220 Descending Oakland Center
Sat 01:13:01 PM 37.2872 -119.7817 262° West 437 503 24,100 -1,317 Descending Oakland Center
Sat 01:14:03 PM 37.2719 -119.9228 262° West 432 497 22,600 -1,805 Descending Oakland Center
Sat 01:15:04 PM 37.2536 -120.0931 262° West 417 480 20,400 -1,902 Descending Oakland Center
Sat 01:16:06 PM 37.2392 -120.2322 263° West 408 470 18,700 -1,659 Descending Oakland Center
Sat 01:17:07 PM 37.2225 -120.3711 261° West 404 465 17,000 -1,659 Descending Oakland Center
Sat 01:18:09 PM 37.1981 -120.5019 257° West 387 445 15,300 -1,610 Descending Oakland Center
Sat 01:19:10 PM 37.1708 -120.6283 255° West 377 434 13,700 -1,561 Descending Oakland Center
Sat 01:20:12 PM 37.1447 -120.7503 255° West 363 418 12,100 -1,073 Descending Oakland Center
Sat 01:21:13 PM 37.1186 -120.8686 255° West 352 405 11,500 -878 Descending Oakland Center
Sat 01:22:15 PM 37.0936 -120.9881 255° West 351 404 10,300 -732 Descending Oakland Center
Sat 01:23:16 PM 37.0853 -121.1114 265° West 355 409 10,000 -146 Descending Oakland Center
Sat 01:24:18 PM 37.0711 -121.2553 263° West 352 405 10,000 -293 Level Oakland Center
Sat 01:25:19 PM 37.0611 -121.3717 264° West 346 398 9,400 -829 Descending Oakland Center
Sat 01:26:21 PM 37.0581 -121.4717 268° West 306 352 8,300 -1,366 Descending Oakland Center
Sat 01:27:22 PM 37.1000 -121.5631 300° West 299 344 6,600 -1,220 Descending Oakland Center
Sat 01:28:24 PM 37.1336 -121.6397 299° West 277 319 5,800 -927 Descending Oakland Center
Sat 01:29:25 PM 37.1661 -121.7108 300° West 257 296 4,700 -1,082 Descending Oakland Center
Sat 01:30:26 PM 37.2061 -121.7711 310° West 240 276 3,600 -1,024 Descending Oakland Center
Sat 01:31:28 PM 37.2531 -121.8128 325° Northwest 219 252 2,600 -1,073 Descending Oakland Center
Sat 01:32:29 PM 37.2989 -121.8603 321° Northwest 192 221 1,400 -927 Descending Oakland Center
Sat 01:33:31 PM 37.3281 -121.8944 317° Northwest 161 185 700 -629 Descending Oakland Center
Sat 01:34:33 PM 37.3544 -121.9225 320° Northwest 134 154 100 -581 Descending Oakland Center
Sat 01:36:00 PM 37.3500 -121.9167 North  Level FlightAware Approximate

Login

Don't have an account? Register now (free) for customized features, flight alerts, and more!